Time;durP1;ratioP1;P1;durP2;ratioP2;P2;SDS_P1;SDS_P2;PMS_P1;PMS_P2;Temp;Humidity;BMP_temperature;BMP_pressure;BME280_temperature;BME280_humidity;BME280_pressure;Samples;Min_cycle;Max_cycle;Signal;HPM_P1;HPM_P2
2022/01/01 00:00:01;;;;;;;;;;;;;;;11.05;100.00;101004.25;5053629;28;856;-75
2022/01/01 00:02:27;;;;;;;;;;;;;;;11.03;100.00;101008.91;5052208;28;1061;-75
2022/01/01 00:04:54;;;;;;;;;;;;;;;11.06;100.00;101022.25;5052958;28;1309;-74
2022/01/01 00:07:20;;;;;;;;;;;;;;;11.04;100.00;101024.25;5054284;28;907;-76
2022/01/01 00:09:47;;;;;;;;;;;;;;;11.02;100.00;101020.75;5053734;28;1914;-76
2022/01/01 00:12:13;;;;;;;;;;;;;;;11.03;100.00;101023.34;5052968;28;635;-75
2022/01/01 00:14:40;;;;;;;;;;;;;;;11.04;100.00;101022.38;5053201;28;737;-76
2022/01/01 00:17:07;;;;;;;;;;;;;;;11.08;100.00;101030.28;5052824;28;822;-73
2022/01/01 00:19:34;;;;;;;;;;;;;;;11.08;100.00;101025.72;5052988;28;796;-75
2022/01/01 00:22:00;;;;;;;;;;;;;;;11.06;100.00;101030.41;5052613;28;816;-74
2022/01/01 00:24:27;;;;;;;;;;;;;;;11.06;100.00;101041.28;5052885;28;832;-75
2022/01/01 00:26:53;;;;;;;;;;;;;;;11.05;100.00;101032.25;5052639;28;1301;-75
2022/01/01 00:29:19;;;;;;;;;;;;;;;11.05;100.00;101036.84;5034578;28;1985;-74
2022/01/01 00:31:47;;;;;;;;;;;;;;;11.03;100.00;101036.09;5052608;28;919;-76
2022/01/01 00:34:13;;;;;;;;;;;;;;;11.02;100.00;101054.25;5052389;28;994;-76
2022/01/01 00:36:40;;;;;;;;;;;;;;;11.02;100.00;101051.53;5052603;28;1372;-75
2022/01/01 00:39:06;;;;;;;;;;;;;;;11.05;100.00;101059.44;5052568;28;919;-75
2022/01/01 00:41:33;;;;;;;;;;;;;;;11.05;100.00;101064.00;5052082;28;1041;-74
2022/01/01 00:43:59;;;;;;;;;;;;;;;11.07;100.00;101058.44;5051226;28;792;-74
2022/01/01 00:46:25;;;;;;;;;;;;;;;11.05;100.00;101058.56;5050596;28;1389;-77
2022/01/01 00:48:53;;;;;;;;;;;;;;;11.07;100.00;101061.16;5051939;28;1973;-76
2022/01/01 00:51:20;;;;;;;;;;;;;;;11.04;100.00;101057.69;5050932;28;978;-75
2022/01/01 00:53:46;;;;;;;;;;;;;;;11.06;100.00;101065.72;5037888;28;1190;-75
2022/01/01 00:56:12;;;;;;;;;;;;;;;11.05;100.00;101069.44;5031425;28;1329;-75
2022/01/01 00:58:39;;;;;;;;;;;;;;;11.01;100.00;101067.91;5030716;28;974;-73
2022/01/01 01:01:05;;;;;;;;;;;;;;;10.98;100.00;101068.16;5063960;28;1143;-73
2022/01/01 01:03:31;;;;;;;;;;;;;;;10.97;100.00;101074.59;5032038;28;812;-75
2022/01/01 01:05:59;;;;;;;;;;;;;;;10.95;100.00;101080.13;5063461;28;1413;-74
2022/01/01 01:08:26;;;;;;;;;;;;;;;10.94;100.00;101077.53;5032110;28;1914;-74
2022/01/01 01:10:52;;;;;;;;;;;;;;;10.90;100.00;101068.75;5032034;28;1058;-75
2022/01/01 01:13:20;;;;;;;;;;;;;;;10.88;100.00;101074.31;5031794;28;1144;-75
2022/01/01 01:15:47;;;;;;;;;;;;;;;10.85;100.00;101081.81;5031342;28;1324;-73
2022/01/01 01:18:13;;;;;;;;;;;;;;;10.85;100.00;101090.84;5063644;28;796;-74
2022/01/01 01:20:40;;;;;;;;;;;;;;;10.85;100.00;101089.97;5034438;28;1483;-73
2022/01/01 01:23:08;;;;;;;;;;;;;;;10.82;100.00;101101.06;5030337;28;998;-75
2022/01/01 01:25:39;;;;;;;;;;;;;;;10.82;100.00;101092.94;5031383;28;1441;-73
2022/01/01 01:28:07;;;;;;;;;;;;;;;10.81;100.00;101102.94;5030440;28;1295;-74
2022/01/01 01:30:34;;;;;;;;;;;;;;;10.80;100.00;101108.50;5030090;28;2002;-75
2022/01/01 01:33:00;;;;;;;;;;;;;;;10.82;100.00;101111.94;5030247;28;935;-76
2022/01/01 01:35:27;;;;;;;;;;;;;;;10.79;100.00;101110.31;5029753;28;1309;-76
2022/01/01 01:37:53;;;;;;;;;;;;;;;10.81;100.00;101112.91;5029863;28;979;-75
2022/01/01 01:40:20;;;;;;;;;;;;;;;10.80;100.00;101113.91;5031417;28;990;-76
2022/01/01 01:42:47;;;;;;;;;;;;;;;10.79;100.00;101113.03;5031395;28;773;-74
2022/01/01 01:45:17;;;;;;;;;;;;;;;10.78;100.00;101111.28;5031214;28;1341;-73
2022/01/01 01:47:43;;;;;;;;;;;;;;;10.76;100.00;101121.41;5030960;28;1025;-75
2022/01/01 01:50:11;;;;;;;;;;;;;;;10.76;100.00;101129.56;5029723;28;1923;-75
2022/01/01 01:52:38;;;;;;;;;;;;;;;10.77;100.00;101125.00;5030947;28;1234;-73
2022/01/01 01:55:05;;;;;;;;;;;;;;;10.74;100.00;101126.09;5029443;28;1312;-73
2022/01/01 01:57:34;;;;;;;;;;;;;;;10.78;100.00;101134.88;5029289;28;979;-73
2022/01/01 02:00:06;;;;;;;;;;;;;;;10.78;100.00;101121.31;5031095;28;1011;-74
2022/01/01 02:02:39;;;;;;;;;;;;;;;10.79;100.00;101136.63;5031082;28;1037;-73
2022/01/01 02:05:06;;;;;;;;;;;;;;;10.78;100.00;101130.31;5030701;28;1418;-72
2022/01/01 02:07:33;;;;;;;;;;;;;;;10.78;100.00;101130.31;5052171;22;4271;-73
2022/01/01 02:09:59;;;;;;;;;;;;;;;10.76;100.00;101134.16;5072369;28;1918;-73
2022/01/01 02:12:26;;;;;;;;;;;;;;;10.74;100.00;101136.94;5090512;28;848;-75
2022/01/01 02:15:11;;;;;;;;;;;;;;;10.76;100.00;101139.56;5072871;28;1123;-73
2022/01/01 02:17:37;;;;;;;;;;;;;;;10.74;100.00;101150.53;5090524;28;1356;-73
2022/01/01 02:20:11;;;;;;;;;;;;;;;10.75;100.00;101149.56;5089443;28;1006;-74
2022/01/01 02:22:40;;;;;;;;;;;;;;;10.77;100.00;101142.16;5090793;28;788;-73
2022/01/01 02:25:06;;;;;;;;;;;;;;;10.77;100.00;101146.72;5090717;28;989;-73
2022/01/01 02:27:32;;;;;;;;;;;;;;;10.77;100.00;101152.16;5090230;28;1317;-73
2022/01/01 02:29:59;;;;;;;;;;;;;;;10.73;100.00;101151.53;5090974;28;1969;-73
2022/01/01 02:32:25;;;;;;;;;;;;;;;10.74;100.00;101157.81;5090591;28;1069;-76
2022/01/01 02:34:51;;;;;;;;;;;;;;;10.74;100.00;101155.97;5090414;28;831;-77
2022/01/01 02:37:19;;;;;;;;;;;;;;;10.72;100.00;101161.50;5090932;28;1419;-76
2022/01/01 02:39:45;;;;;;;;;;;;;;;10.72;100.00;101160.66;5091598;28;966;-74
2022/01/01 02:42:13;;;;;;;;;;;;;;;10.69;100.00;101158.19;5091178;28;1108;-74
2022/01/01 02:44:40;;;;;;;;;;;;;;;10.68;100.00;101165.44;5090852;28;834;-73
2022/01/01 02:47:07;;;;;;;;;;;;;;;10.68;100.00;101154.56;5092451;28;927;-75
2022/01/01 02:49:33;;;;;;;;;;;;;;;10.69;100.00;101160.91;5094260;28;1983;-76
2022/01/01 02:51:59;;;;;;;;;;;;;;;10.68;100.00;101175.44;5093583;28;938;-73
2022/01/01 02:54:27;;;;;;;;;;;;;;;10.69;100.00;101167.19;5094311;28;1209;-74
2022/01/01 02:56:53;;;;;;;;;;;;;;;10.69;100.00;101179.91;5094215;28;1002;-75
2022/01/01 02:59:19;;;;;;;;;;;;;;;10.72;100.00;101171.50;5094433;28;1401;-75
2022/01/01 03:01:46;;;;;;;;;;;;;;;10.71;100.00;101175.19;5094429;28;796;-73
2022/01/01 03:04:12;;;;;;;;;;;;;;;10.70;100.00;101168.91;5094220;28;955;-75
2022/01/01 03:06:38;;;;;;;;;;;;;;;10.71;100.00;101169.78;5094163;28;1041;-75
2022/01/01 03:09:05;;;;;;;;;;;;;;;10.69;100.00;101179.91;5093504;28;1918;-73
2022/01/01 03:11:32;;;;;;;;;;;;;;;10.64;100.00;101180.22;5092623;28;768;-74
2022/01/01 03:13:58;;;;;;;;;;;;;;;10.67;100.00;101190.00;5094032;28;807;-75
2022/01/01 03:16:25;;;;;;;;;;;;;;;10.65;100.00;101191.94;5093444;28;977;-74
2022/01/01 03:18:52;;;;;;;;;;;;;;;10.65;100.00;101194.66;5093707;28;1293;-75
2022/01/01 03:21:18;;;;;;;;;;;;;;;10.62;100.00;101195.78;5093768;28;895;-74
2022/01/01 03:23:45;;;;;;;;;;;;;;;10.62;100.00;101194.91;5092966;28;832;-75
2022/01/01 03:26:11;;;;;;;;;;;;;;;10.63;100.00;101199.34;5091977;28;756;-74
2022/01/01 03:28:38;;;;;;;;;;;;;;;10.61;100.00;101195.88;5091840;28;1510;-75
2022/01/01 03:31:05;;;;;;;;;;;;;;;10.61;100.00;101204.00;5093584;28;1984;-73
2022/01/01 03:33:31;;;;;;;;;;;;;;;10.61;100.00;101199.47;5092146;28;994;-74
2022/01/01 03:35:57;;;;;;;;;;;;;;;10.58;100.00;101215.09;5093513;28;963;-75
2022/01/01 03:38:24;;;;;;;;;;;;;;;10.58;100.00;101217.81;5093658;28;1341;-75
2022/01/01 03:40:50;;;;;;;;;;;;;;;10.54;100.00;101217.16;5094576;28;915;-76
2022/01/01 03:43:16;;;;;;;;;;;;;;;10.51;100.00;101222.84;5094179;28;1045;-76
2022/01/01 03:45:44;;;;;;;;;;;;;;;10.48;100.00;101221.22;5092892;28;982;-74
2022/01/01 03:48:10;;;;;;;;;;;;;;;10.49;100.00;101224.78;5093886;28;1398;-76
2022/01/01 03:50:36;;;;;;;;;;;;;;;10.48;100.00;101215.78;5093533;28;1905;-75
2022/01/01 03:53:03;;;;;;;;;;;;;;;10.51;100.00;101215.53;5085825;28;1224;-76
2022/01/01 03:55:29;;;;;;;;;;;;;;;10.50;100.00;101211.13;5073633;28;885;-76
2022/01/01 03:57:55;;;;;;;;;;;;;;;10.51;100.00;101210.13;5073249;28;1321;-75
2022/01/01 04:00:22;;;;;;;;;;;;;;;10.51;100.00;101209.25;5089480;28;2060;-73
2022/01/01 04:02:49;;;;;;;;;;;;;;;10.51;100.00;101226.41;5084774;28;1157;-74
2022/01/01 04:05:16;;;;;;;;;;;;;;;10.50;100.00;101226.50;5083065;28;1774;-76
2022/01/01 04:07:42;;;;;;;;;;;;;;;10.49;100.00;101225.66;5072761;28;1325;-74
2022/01/01 04:10:09;;;;;;;;;;;;;;;10.51;100.00;101234.53;5071721;28;1898;-74
2022/01/01 04:12:35;;;;;;;;;;;;;;;10.52;100.00;101238.16;5071956;28;798;-75
2022/01/01 04:15:02;;;;;;;;;;;;;;;10.52;100.00;101247.16;5071799;28;923;-76
2022/01/01 04:17:29;;;;;;;;;;;;;;;10.52;100.00;101233.56;5072527;28;1351;-76
2022/01/01 04:19:56;;;;;;;;;;;;;;;10.51;100.00;101234.53;5072701;28;990;-76
2022/01/01 04:22:22;;;;;;;;;;;;;;;10.51;100.00;101245.41;5072782;28;1022;-77
2022/01/01 04:24:49;;;;;;;;;;;;;;;10.52;100.00;101249.00;5072596;28;923;-76
2022/01/01 04:27:15;;;;;;;;;;;;;;;10.52;100.00;101251.72;5072779;28;1416;-73
2022/01/01 04:29:44;;;;;;;;;;;;;;;10.54;100.00;101256.06;5072480;28;1985;-75
2022/01/01 04:32:13;;;;;;;;;;;;;;;10.55;100.00;101257.81;5071399;28;951;-74
2022/01/01 04:34:40;;;;;;;;;;;;;;;10.57;100.00;101251.38;5072261;28;998;-72
2022/01/01 04:37:12;;;;;;;;;;;;;;;10.54;100.00;101249.75;5072060;28;986;-74
2022/01/01 04:39:38;;;;;;;;;;;;;;;10.53;100.00;101248.03;5072182;28;840;-75
2022/01/01 04:42:05;;;;;;;;;;;;;;;10.53;100.00;101256.19;5054340;28;1225;-74
2022/01/01 04:44:31;;;;;;;;;;;;;;;10.53;100.00;101262.47;5073472;28;839;-74
2022/01/01 04:46:57;;;;;;;;;;;;;;;10.53;100.00;101256.19;5073819;28;1074;-76
2022/01/01 04:49:24;;;;;;;;;;;;;;;10.53;100.00;101261.59;5073064;28;1993;-76
2022/01/01 04:51:50;;;;;;;;;;;;;;;10.54;100.00;101263.31;5072170;28;816;-76
2022/01/01 04:54:17;;;;;;;;;;;;;;;10.51;100.00;101255.41;5084462;28;1158;-75
2022/01/01 04:56:46;;;;;;;;;;;;;;;10.50;100.00;101261.81;5091801;28;978;-74
2022/01/01 04:59:12;;;;;;;;;;;;;;;10.51;100.00;101267.13;5092060;28;1387;-75
2022/01/01 05:01:39;;;;;;;;;;;;;;;10.49;100.00;101262.78;5092093;28;1057;-74
2022/01/01 05:04:06;;;;;;;;;;;;;;;10.51;100.00;101268.97;5092534;28;835;-73
2022/01/01 05:06:32;;;;;;;;;;;;;;;10.50;100.00;101265.41;5091853;28;978;-73
2022/01/01 05:08:58;;;;;;;;;;;;;;;10.49;100.00;101263.66;5091417;28;1292;-73
2022/01/01 05:11:26;;;;;;;;;;;;;;;10.50;100.00;101265.41;5090720;28;1914;-74
2022/01/01 05:13:53;;;;;;;;;;;;;;;10.52;100.00;101268.00;5091956;28;1127;-73
2022/01/01 05:16:20;;;;;;;;;;;;;;;10.53;100.00;101272.47;5091412;28;828;-75
2022/01/01 05:18:46;;;;;;;;;;;;;;;10.52;100.00;101274.28;5091621;28;1408;-74
2022/01/01 05:21:13;;;;;;;;;;;;;;;10.48;100.00;101271.94;5090264;28;1037;-73
2022/01/01 05:23:39;;;;;;;;;;;;;;;10.49;100.00;101274.53;5091503;28;914;-72
2022/01/01 05:26:06;;;;;;;;;;;;;;;10.48;100.00;101277.34;5091337;28;784;-75
2022/01/01 05:28:33;;;;;;;;;;;;;;;10.47;100.00;101265.59;5091311;28;1379;-74
2022/01/01 05:30:59;;;;;;;;;;;;;;;10.48;100.00;101278.22;5090374;28;1981;-73
2022/01/01 05:33:26;;;;;;;;;;;;;;;10.49;100.00;101281.78;5091283;28;1502;-71
2022/01/01 05:35:52;;;;;;;;;;;;;;;10.48;100.00;101290.94;5091621;28;994;-72
2022/01/01 05:38:18;;;;;;;;;;;;;;;10.52;100.00;101304.16;5091544;28;1351;-72
2022/01/01 05:40:44;;;;;;;;;;;;;;;10.51;100.00;101294.25;5091792;28;781;-73
2022/01/01 05:43:13;;;;;;;;;;;;;;;10.53;100.00;101302.31;5091745;28;994;-75
2022/01/01 05:45:42;;;;;;;;;;;;;;;10.53;100.00;101318.59;5092074;28;883;-73
2022/01/01 05:48:08;;;;;;;;;;;;;;;10.50;100.00;101308.84;5090652;28;1434;-73
2022/01/01 05:50:34;;;;;;;;;;;;;;;10.50;100.00;101314.25;5091239;28;1905;-75
2022/01/01 05:53:01;;;;;;;;;;;;;;;10.50;100.00;101313.38;5090244;28;1244;-73
2022/01/01 05:55:27;;;;;;;;;;;;;;;10.49;100.00;101317.06;5071874;28;993;-73
2022/01/01 05:57:53;;;;;;;;;;;;;;;10.47;100.00;101317.19;5070584;28;1324;-77
2022/01/01 06:00:19;;;;;;;;;;;;;;;10.47;100.00;101319.03;5072506;28;1053;-74
2022/01/01 06:02:47;;;;;;;;;;;;;;;10.48;100.00;101320.78;5071804;28;812;-75
2022/01/01 06:05:13;;;;;;;;;;;;;;;10.49;100.00;101319.78;5070650;28;2117;-75
2022/01/01 06:07:40;;;;;;;;;;;;;;;10.49;100.00;101322.50;5070934;28;1385;-77
2022/01/01 06:10:06;;;;;;;;;;;;;;;10.47;100.00;101330.75;5071882;28;1914;-74
2022/01/01 06:12:33;;;;;;;;;;;;;;;10.49;100.00;101336.94;5070454;28;1258;-77
2022/01/01 06:14:59;;;;;;;;;;;;;;;10.49;100.00;101330.63;5071779;28;931;-75
2022/01/01 06:17:25;;;;;;;;;;;;;;;10.49;100.00;101336.94;5053079;28;1430;-75
2022/01/01 06:19:53;;;;;;;;;;;;;;;10.49;100.00;101338.78;5070959;28;1293;-73
2022/01/01 06:22:19;;;;;;;;;;;;;;;10.47;100.00;101335.31;5073942;28;1143;-74
2022/01/01 06:24:45;;;;;;;;;;;;;;;10.47;100.00;101340.75;5076044;28;783;-72
2022/01/01 06:27:13;;;;;;;;;;;;;;;10.49;100.00;101338.78;5075347;28;793;-74
2022/01/01 06:29:39;;;;;;;;;;;;;;;10.51;100.00;101342.25;5075595;28;753;-75
2022/01/01 06:32:06;;;;;;;;;;;;;;;10.49;100.00;101344.19;5075664;28;1914;-74
2022/01/01 06:34:32;;;;;;;;;;;;;;;10.50;100.00;101346.84;5076165;28;733;-77
2022/01/01 06:36:59;;;;;;;;;;;;;;;10.51;100.00;101348.56;5073810;28;1384;-76
2022/01/01 06:39:26;;;;;;;;;;;;;;;10.53;100.00;101346.63;5074056;28;1313;-74
2022/01/01 06:41:52;;;;;;;;;;;;;;;10.55;100.00;101349.22;5074509;28;1176;-74
2022/01/01 06:44:18;;;;;;;;;;;;;;;10.53;100.00;101356.63;5075684;28;1149;-77
2022/01/01 06:46:44;;;;;;;;;;;;;;;10.50;100.00;101363.13;5075093;28;784;-76
2022/01/01 06:49:11;;;;;;;;;;;;;;;10.49;100.00;101364.09;5074460;28;1392;-75
2022/01/01 06:51:37;;;;;;;;;;;;;;;10.50;100.00;101378.53;5074782;28;1984;-76
2022/01/01 06:54:05;;;;;;;;;;;;;;;10.50;100.00;101370.38;5085810;28;1166;-77
2022/01/01 06:56:31;;;;;;;;;;;;;;;10.51;100.00;101374.84;5095811;28;797;-74
2022/01/01 06:58:57;;;;;;;;;;;;;;;10.51;100.00;101374.84;5095818;28;1520;-76
2022/01/01 07:01:23;;;;;;;;;;;;;;;10.52;100.00;101377.44;5095412;28;1318;-74
2022/01/01 07:03:50;;;;;;;;;;;;;;;10.53;100.00;101372.91;5093519;28;1816;-75
2022/01/01 07:06:16;;;;;;;;;;;;;;;10.55;100.00;101379.06;5093730;28;1623;-73
2022/01/01 07:08:42;;;;;;;;;;;;;;;10.54;100.00;101380.94;5094824;28;1535;-76
2022/01/01 07:11:10;;;;;;;;;;;;;;;10.55;100.00;101384.50;5094331;28;1906;-76
2022/01/01 07:13:36;;;;;;;;;;;;;;;10.55;100.00;101382.69;5094999;28;1524;-75
2022/01/01 07:16:02;;;;;;;;;;;;;;;10.57;100.00;101390.69;5095238;28;1557;-76
2022/01/01 07:18:29;;;;;;;;;;;;;;;10.57;100.00;101385.28;5100215;28;1319;-76
2022/01/01 07:20:55;;;;;;;;;;;;;;;10.57;100.00;101393.41;5096803;28;816;-77
2022/01/01 07:23:21;;;;;;;;;;;;;;;10.60;100.00;101395.06;5095876;28;1611;-75
2022/01/01 07:25:47;;;;;;;;;;;;;;;10.58;100.00;101399.72;5097425;28;1605;-75
2022/01/01 07:28:16;;;;;;;;;;;;;;;10.63;100.00;101405.69;5078283;28;1473;-76
2022/01/01 07:30:42;;;;;;;;;;;;;;;10.62;100.00;101404.81;5088924;28;1913;-74
2022/01/01 07:33:11;;;;;;;;;;;;;;;10.63;100.00;101408.41;5094635;28;1042;-74
2022/01/01 07:35:38;;;;;;;;;;;;;;;10.65;100.00;101407.31;5094108;28;1556;-77
2022/01/01 07:38:04;;;;;;;;;;;;;;;10.63;100.00;101406.53;5095389;28;1305;-75
2022/01/01 07:40:32;;;;;;;;;;;;;;;10.62;100.00;101410.25;5094313;28;1516;-73
2022/01/01 07:42:58;;;;;;;;;;;;;;;10.63;100.00;101421.97;5093942;28;1540;-77
2022/01/01 07:45:26;;;;;;;;;;;;;;;10.64;100.00;101426.44;5094711;28;1571;-72
2022/01/01 07:47:52;;;;;;;;;;;;;;;10.64;100.00;101430.00;5092249;28;1539;-72
2022/01/01 07:50:18;;;;;;;;;;;;;;;10.66;100.00;101425.34;5092009;28;1983;-74
2022/01/01 07:52:45;;;;;;;;;;;;;;;10.69;100.00;101426.97;5091967;28;1500;-74
2022/01/01 07:55:11;;;;;;;;;;;;;;;10.70;100.00;101429.59;5092869;28;1014;-72
2022/01/01 07:57:37;;;;;;;;;;;;;;;10.70;100.00;101435.00;5092672;28;1492;-75
2022/01/01 08:00:07;;;;;;;;;;;;;;;10.72;100.00;101429.47;5092252;28;1491;-75
2022/01/01 08:02:38;;;;;;;;;;;;;;;10.70;100.00;101447.72;5093065;28;1100;-74
2022/01/01 08:05:05;;;;;;;;;;;;;;;10.71;100.00;101435.88;5091445;28;1603;-75
2022/01/01 08:07:31;;;;;;;;;;;;;;;10.71;100.00;101452.16;5092492;28;1356;-74
2022/01/01 08:09:57;;;;;;;;;;;;;;;10.72;100.00;101449.34;5081042;22;3531;-74
2022/01/01 08:12:23;;;;;;;;;;;;;;;10.71;100.00;101461.16;5051791;28;1906;-73
2022/01/01 08:14:50;;;;;;;;;;;;;;;10.69;100.00;101454.13;5051496;28;1465;-74
2022/01/01 08:17:16;;;;;;;;;;;;;;;10.70;100.00;101453.13;5034375;28;1518;-74
2022/01/01 08:19:44;;;;;;;;;;;;;;;10.69;100.00;101459.56;5052544;28;1528;-74
2022/01/01 08:22:12;;;;;;;;;;;;;;;10.71;100.00;101454.88;5052521;28;1559;-77
2022/01/01 08:24:39;;;;;;;;;;;;;;;10.72;100.00;101453.91;5051596;28;983;-76
2022/01/01 08:27:06;;;;;;;;;;;;;;;10.74;100.00;101451.94;5052431;28;1646;-74
2022/01/01 08:29:32;;;;;;;;;;;;;;;10.75;100.00;101459.13;5052809;28;1385;-75
2022/01/01 08:31:58;;;;;;;;;;;;;;;10.74;100.00;101457.38;5052785;28;1981;-75
2022/01/01 08:34:25;;;;;;;;;;;;;;;10.76;100.00;101455.44;5053369;28;1465;-74
2022/01/01 08:36:53;;;;;;;;;;;;;;;10.75;100.00;101458.25;5051071;28;797;-75
2022/01/01 08:39:19;;;;;;;;;;;;;;;10.77;100.00;101456.28;5052158;28;1404;-77
2022/01/01 08:41:45;;;;;;;;;;;;;;;10.78;100.00;101437.16;5050989;28;1549;-76
2022/01/01 08:44:12;;;;;;;;;;;;;;;10.79;100.00;101447.06;5051105;28;1544;-75
2022/01/01 08:46:38;;;;;;;;;;;;;;;10.81;100.00;101453.25;5050789;28;1018;-77
2022/01/01 08:49:05;;;;;;;;;;;;;;;10.84;100.00;101455.75;5051867;28;1571;-77
2022/01/01 08:51:34;;;;;;;;;;;;;;;10.87;100.00;101457.38;5052041;28;1910;-78
2022/01/01 08:54:02;;;;;;;;;;;;;;;10.86;100.00;101464.69;5051897;28;1544;-78
2022/01/01 08:56:28;;;;;;;;;;;;;;;10.86;100.00;101466.50;5052478;28;911;-77
2022/01/01 08:58:54;;;;;;;;;;;;;;;10.85;100.00;101468.38;5052108;28;1544;-77
2022/01/01 09:01:21;;;;;;;;;;;;;;;10.85;100.00;101468.38;5052289;28;834;-78
2022/01/01 09:03:47;;;;;;;;;;;;;;;10.88;100.00;101475.44;5039761;28;1497;-77
2022/01/01 09:06:14;;;;;;;;;;;;;;;10.87;100.00;101473.69;5049569;28;1557;-79
2022/01/01 09:08:41;;;;;;;;;;;;;;;10.94;100.00;101476.81;5051857;28;1513;-76
2022/01/01 09:11:09;;;;;;;;;;;;;;;10.96;100.00;101488.47;5052664;28;1902;-76
2022/01/01 09:13:41;;;;;;;;;;;;;;;11.00;100.00;101488.13;5051422;28;1590;-76
2022/01/01 09:16:08;;;;;;;;;;;;;;;11.01;100.00;101497.13;5051495;28;1492;-76
2022/01/01 09:18:34;;;;;;;;;;;;;;;11.01;100.00;101497.13;5051974;28;1314;-75
2022/01/01 09:21:00;;;;;;;;;;;;;;;11.04;100.00;101505.09;5047634;28;1508;-76
2022/01/01 09:23:27;;;;;;;;;;;;;;;11.07;100.00;101506.72;5051004;28;765;-78
2022/01/01 09:25:53;;;;;;;;;;;;;;;11.09;100.00;101516.50;5040854;28;1578;-76
2022/01/01 09:28:20;;;;;;;;;;;;;;;11.12;100.00;101520.84;5050327;28;1515;-76
2022/01/01 09:30:47;;;;;;;;;;;;;;;11.15;100.00;101516.06;5051234;28;1914;-78
2022/01/01 09:33:13;;;;;;;;;;;;;;;11.14;100.00;101530.59;5051509;28;1512;-76
2022/01/01 09:35:40;;;;;;;;;;;;;;;11.16;100.00;101530.53;5049120;28;987;-77
2022/01/01 09:38:07;;;;;;;;;;;;;;;11.18;100.00;101532.16;5049913;28;1497;-76
2022/01/01 09:40:33;;;;;;;;;;;;;;;11.21;100.00;101537.38;5050631;28;1599;-77
2022/01/01 09:43:00;;;;;;;;;;;;;;;11.22;100.00;101539.13;5049927;28;1589;-75
2022/01/01 09:45:28;;;;;;;;;;;;;;;11.21;100.00;101545.53;5050601;28;1492;-76
2022/01/01 09:47:55;;;;;;;;;;;;;;;11.16;100.00;101558.56;5045961;28;1529;-77
2022/01/01 09:50:21;;;;;;;;;;;;;;;11.17;100.00;101545.81;5049652;28;1743;-77
2022/01/01 09:52:48;;;;;;;;;;;;;;;11.18;100.00;101556.63;5050177;28;1914;-76
2022/01/01 09:55:14;;;;;;;;;;;;;;;11.21;100.00;101559.09;5050650;28;1571;-76
2022/01/01 09:57:40;;;;;;;;;;;;;;;11.21;100.00;101559.09;5050267;28;1488;-76
2022/01/01 10:00:07;;;;;;;;;;;;;;;11.25;100.00;101564.31;5047106;28;1826;-76
2022/01/01 10:02:35;;;;;;;;;;;;;;;11.22;100.00;101560.84;5049632;28;1193;-77
2022/01/01 10:05:03;;;;;;;;;;;;;;;11.21;100.00;101561.81;5041833;28;1141;-76
2022/01/01 10:07:31;;;;;;;;;;;;;;;11.22;100.00;101569.00;5049510;28;1152;-75
2022/01/01 10:09:57;;;;;;;;;;;;;;;11.24;100.00;101574.34;5050881;28;1325;-77
2022/01/01 10:12:37;;;;;;;;;;;;;;;11.26;100.00;101575.06;5050373;28;1914;-75
2022/01/01 10:15:06;;;;;;;;;;;;;;;11.29;100.00;101571.28;5051210;28;670;-74
2022/01/01 10:17:32;;;;;;;;;;;;;;;11.28;100.00;101569.56;5050625;28;989;-75
2022/01/01 10:20:01;;;;;;;;;;;;;;;11.26;100.00;101564.19;5051088;28;1349;-74
2022/01/01 10:22:28;;;;;;;;;;;;;;;11.26;100.00;101563.34;5032930;28;951;-78
2022/01/01 10:27:51;;;;;;;;;;;;;;;11.27;100.00;101565.09;5049440;28;721;-76
2022/01/01 10:30:19;;;;;;;;;;;;;;;11.27;100.00;101578.69;5050933;28;1433;-74
2022/01/01 10:33:03;;;;;;;;;;;;;;;11.28;100.00;101575.00;5049542;28;1914;-74
2022/01/01 10:35:36;;;;;;;;;;;;;;;11.31;100.00;101575.63;5043767;28;1084;-73
2022/01/01 10:38:04;;;;;;;;;;;;;;;11.29;100.00;101577.59;5050744;28;832;-74
2022/01/01 10:40:30;;;;;;;;;;;;;;;11.33;100.00;101583.66;5050380;28;1375;-76
2022/01/01 10:42:56;;;;;;;;;;;;;;;11.38;100.00;101578.78;5051654;28;927;-76
2022/01/01 10:45:30;;;;;;;;;;;;;;;11.38;100.00;101576.06;5051300;28;1016;-74
2022/01/01 10:48:04;;;;;;;;;;;;;;;11.41;100.00;101577.69;5049291;28;1069;-73
2022/01/01 10:50:32;;;;;;;;;;;;;;;11.39;100.00;101575.94;5050522;28;1349;-74
2022/01/01 10:53:09;;;;;;;;;;;;;;;11.43;100.00;101583.91;5049384;28;1985;-75
2022/01/01 10:55:35;;;;;;;;;;;;;;;11.42;100.00;101583.00;5036676;28;1166;-75
2022/01/01 10:58:03;;;;;;;;;;;;;;;11.39;100.00;101581.38;5030463;28;742;-76
2022/01/01 11:00:29;;;;;;;;;;;;;;;11.36;100.00;101597.91;5030491;28;1321;-75
2022/01/01 11:02:56;;;;;;;;;;;;;;;11.37;100.00;101588.78;5030686;28;916;-76
2022/01/01 11:05:27;;;;;;;;;;;;;;;11.38;100.00;101592.38;5029587;28;923;-74
2022/01/01 11:07:53;;;;;;;;;;;;;;;11.38;100.00;101589.66;5031194;28;1046;-75
2022/01/01 11:10:22;;;;;;;;;;;;;;;11.39;100.00;101580.53;5034078;28;1418;-75
2022/01/01 11:12:49;;;;;;;;;;;;;;;11.36;100.00;101572.59;5034265;28;1946;-72
2022/01/01 11:15:15;;;;;;;;;;;;;;;11.27;100.00;101579.53;5034004;28;821;-77
2022/01/01 11:17:42;;;;;;;;;;;;;;;11.21;100.00;101585.41;5036085;28;1469;-75
2022/01/01 11:20:09;;;;;;;;;;;;;;;11.16;100.00;101574.00;5053955;28;1531;-73
2022/01/01 11:22:36;;;;;;;;;;;;;;;11.12;100.00;101589.66;5069501;28;776;-74
2022/01/01 11:25:03;;;;;;;;;;;;;;;11.11;100.00;101595.19;5054172;28;936;-73
2022/01/01 11:27:31;;;;;;;;;;;;;;;11.10;100.00;101598.88;5054265;28;986;-73
2022/01/01 11:29:59;;;;;;;;;;;;;;;11.14;100.00;101593.09;5054075;28;1389;-74
2022/01/01 11:32:28;;;;;;;;;;;;;;;11.16;100.00;101588.44;5053734;28;1977;-74
2022/01/01 11:34:56;;;;;;;;;;;;;;;11.19;100.00;101585.50;5053616;28;837;-76
2022/01/01 11:37:23;;;;;;;;;;;;;;;11.22;100.00;101592.56;5053402;28;966;-75
2022/01/01 11:39:54;;;;;;;;;;;;;;;11.22;100.00;101593.47;5053662;28;1384;-75
2022/01/01 11:42:20;;;;;;;;;;;;;;;11.25;100.00;101596.94;5052332;28;994;-76
2022/01/01 11:44:51;;;;;;;;;;;;;;;11.25;100.00;101596.94;5053632;28;780;-73
2022/01/01 11:47:19;;;;;;;;;;;;;;;11.26;100.00;101595.97;5053121;28;978;-76
2022/01/01 11:49:46;;;;;;;;;;;;;;;11.26;100.00;101594.09;5053360;28;1310;-75
2022/01/01 11:52:12;;;;;;;;;;;;;;;11.33;100.00;101589.09;5052960;28;1961;-75
2022/01/01 11:54:41;;;;;;;;;;;;;;;11.35;100.00;101588.00;5053290;28;1173;-75
2022/01/01 11:57:16;;;;;;;;;;;;;;;11.38;100.00;101587.81;5053126;28;891;-74
2022/01/01 11:59:47;;;;;;;;;;;;;;;11.42;100.00;101582.16;5053453;28;1330;-75
2022/01/01 12:05:30;;;;;;;;;;;;;;;11.45;100.00;101596.41;5108415;27;1459;-76
2022/01/01 12:07:58;;;;;;;;;;;;;;;11.47;100.00;101590.84;5107391;28;1009;-77
2022/01/01 12:10:26;;;;;;;;;;;;;;;11.48;100.00;101604.34;5092609;28;1567;-75
2022/01/01 12:12:53;;;;;;;;;;;;;;;11.47;100.00;101602.59;5101206;28;1535;-75
2022/01/01 12:15:21;;;;;;;;;;;;;;;11.53;100.00;101604.00;5108672;28;915;-75
2022/01/01 12:17:49;;;;;;;;;;;;;;;11.58;100.00;101601.81;5108255;28;1507;-76
2022/01/01 12:20:16;;;;;;;;;;;;;;;11.67;100.00;101597.59;5108804;28;1317;-75
2022/01/01 12:22:44;;;;;;;;;;;;;;;11.74;100.00;101598.88;5097185;28;2080;-77
2022/01/01 12:25:14;;;;;;;;;;;;;;;11.80;100.00;101598.44;5088685;28;1037;-75
2022/01/01 12:27:40;;;;;;;;;;;;;;;11.76;100.00;101591.47;5106954;28;1456;-75
2022/01/01 12:30:07;;;;;;;;;;;;;;;11.85;100.00;101593.53;5108553;28;1312;-73
2022/01/01 12:32:37;;;;;;;;;;;;;;;11.89;100.00;101592.31;5107660;28;1496;-73
2022/01/01 12:35:07;;;;;;;;;;;;;;;11.87;100.00;101587.97;5107424;28;804;-76
2022/01/01 12:37:36;;;;;;;;;;;;;;;11.88;100.00;101596.00;5090596;28;1483;-75
2022/01/01 12:40:05;;;;;;;;;;;;;;;11.87;100.00;101609.72;5108439;28;1402;-76
2022/01/01 12:42:32;;;;;;;;;;;;;;;11.81;100.00;101602.91;5107851;28;1491;-75
2022/01/01 12:44:59;;;;;;;;;;;;;;;11.76;100.00;101601.47;5108242;28;2041;-75